Aérodrome :
LOGIN :

S'inscrire | Disclaimer

   EN    FR    IT 

 










Légende :    VFR   VFR Marginal   IFR   IFR Intensif   IFR Très Intensif
Visi : 
Plafond : 
>= 8 km
>= 3000ft
5 à 8 km
1000 à 3000 ft
1500m à 5 km
500 à 1000 ft
800 à 1500m
200 à 500 ft
< 800m
< 200 ft
Symboles :   Orages  Brouillard  Fortes neiges  Fortes précipitations  Vent > 20 kt
SIGMETs :   Divers  Orages  Givrage  Turbulence  Onde Orograph.  Cendres Volcan.







- Altitude de l'aérodrome : 821 ft
- Code IATA : LYS
- Voir les cartes d'approche


LFLL - Lyon St Exupéry / Satolas

DERNIER METAR :
  • 171500Z VRB02KT CAVOK 30/15 Q1018 NOSIG

METARs EXPIRÉS :
  • 171430Z VRB02KT CAVOK 30/15 Q1019 NOSIG
  • 171400Z VRB03KT CAVOK 30/16 Q1019 NOSIG
  • 171330Z VRB03KT CAVOK 29/15 Q1019 NOSIG
  • 171300Z VRB03KT 9999 FEW052 29/16 Q1019 NOSIG
  • 171230Z VRB04KT 9999 FEW048 28/16 Q1019 NOSIG

TAF TAF LFLL
Valide du 17 à 12h jusqu'au 18 à 18h UTC


171100Z 1712/1818 35012KT CAVOK
BECMG 1714/1716 07012KT
BECMG 1721/1723 VRB02KT
BECMG 1809/1811 21012KT
BECMG 1811/1813 33012KT
TEMPO 1813/1818 33015G25KT 4500 SHRA FEW050CB BKN060TCU
PROB40
TEMPO 1813/1816 VRB20G35KT 2000 TSRA SCT014 BKN030CB
Pas de NOTAMs connus pour ce terrain.



MET'MAP, la Météo Aéronautique d'un coup d'oeil ! - Copyright ORBIFLY Décembre 2007 - Disclaimer

ORBIFLY MET'MAP TEAM :

Programmation & Développement : Alexandra Zaïnal
Conception & Développement : Baudouin d'Aumeries
Co-Programmation & Développement : Marc-Olivier Méhu
Soutien technique & logistique : Manuel Goepfert

Contact : metmap@orbifly.com




SOURCES & CREDITS :

   NOAA